sensor_id;sensor_type;location;lat;lon;timestamp;pressure;altitude;pressure_sealevel;temperature;humidity
9235;BME280;4652;42.716;23.218;2023-05-25T00:00:25;94718.47;;;13.06;100.00
9235;BME280;4652;42.716;23.218;2023-05-25T00:07:08;94755.47;;;13.19;100.00
9235;BME280;4652;42.716;23.218;2023-05-25T00:13:50;94755.00;;;13.17;100.00
9235;BME280;4652;42.716;23.218;2023-05-25T00:20:33;94774.47;;;13.28;100.00
9235;BME280;4652;42.716;23.218;2023-05-25T00:27:16;94777.00;;;13.24;100.00
9235;BME280;4652;42.716;23.218;2023-05-25T00:33:58;94756.03;;;13.08;100.00
9235;BME280;4652;42.716;23.218;2023-05-25T00:40:40;94741.47;;;12.68;100.00
9235;BME280;4652;42.716;23.218;2023-05-25T00:47:24;94784.66;;;12.95;100.00
9235;BME280;4652;42.716;23.218;2023-05-25T00:54:06;94774.78;;;12.77;100.00
9235;BME280;4652;42.716;23.218;2023-05-25T01:18:42;94798.00;;;12.91;100.00
9235;BME280;4652;42.716;23.218;2023-05-25T01:25:30;94788.13;;;12.60;100.00
9235;BME280;4652;42.716;23.218;2023-05-25T01:32:16;94779.91;;;12.65;100.00
9235;BME280;4652;42.716;23.218;2023-05-25T01:38:58;94782.81;;;12.55;100.00
9235;BME280;4652;42.716;23.218;2023-05-25T01:45:42;94776.72;;;12.63;100.00
9235;BME280;4652;42.716;23.218;2023-05-25T01:52:25;94773.84;;;12.59;100.00
9235;BME280;4652;42.716;23.218;2023-05-25T01:59:09;94774.94;;;12.58;100.00
9235;BME280;4652;42.716;23.218;2023-05-25T02:05:53;94773.34;;;12.44;100.00
9235;BME280;4652;42.716;23.218;2023-05-25T02:12:37;94776.34;;;12.28;100.00
9235;BME280;4652;42.716;23.218;2023-05-25T02:19:19;94797.84;;;12.33;100.00
9235;BME280;4652;42.716;23.218;2023-05-25T02:26:03;94804.13;;;12.15;100.00
9235;BME280;4652;42.716;23.218;2023-05-25T02:32:45;94798.13;;;12.18;100.00
9235;BME280;4652;42.716;23.218;2023-05-25T02:39:27;94807.94;;;12.01;100.00
9235;BME280;4652;42.716;23.218;2023-05-25T02:46:10;94797.91;;;11.88;100.00
9235;BME280;4652;42.716;23.218;2023-05-25T02:52:52;94831.91;;;12.02;100.00
9235;BME280;4652;42.716;23.218;2023-05-25T02:59:34;94801.28;;;11.79;100.00
9235;BME280;4652;42.716;23.218;2023-05-25T03:06:17;94831.16;;;11.83;100.00
9235;BME280;4652;42.716;23.218;2023-05-25T03:13:00;94836.34;;;11.79;100.00
9235;BME280;4652;42.716;23.218;2023-05-25T03:19:42;94840.50;;;12.04;100.00
9235;BME280;4652;42.716;23.218;2023-05-25T03:26:26;94829.72;;;12.04;100.00
9235;BME280;4652;42.716;23.218;2023-05-25T03:33:08;94835.44;;;12.30;100.00
9235;BME280;4652;42.716;23.218;2023-05-25T03:39:50;94854.19;;;12.67;100.00
9235;BME280;4652;42.716;23.218;2023-05-25T03:46:33;94845.34;;;12.89;100.00
9235;BME280;4652;42.716;23.218;2023-05-25T03:53:15;94856.50;;;13.23;100.00
9235;BME280;4652;42.716;23.218;2023-05-25T03:59:57;94844.38;;;13.57;100.00
9235;BME280;4652;42.716;23.218;2023-05-25T04:06:41;94845.19;;;13.79;100.00
9235;BME280;4652;42.716;23.218;2023-05-25T04:13:25;94843.25;;;14.02;100.00
9235;BME280;4652;42.716;23.218;2023-05-25T04:20:07;94866.06;;;14.62;100.00
9235;BME280;4652;42.716;23.218;2023-05-25T04:26:51;94857.38;;;15.00;100.00
9235;BME280;4652;42.716;23.218;2023-05-25T04:33:33;94883.53;;;15.52;100.00
9235;BME280;4652;42.716;23.218;2023-05-25T04:40:18;94870.75;;;15.96;100.00
9235;BME280;4652;42.716;23.218;2023-05-25T04:47:03;94876.56;;;16.40;100.00
9235;BME280;4652;42.716;23.218;2023-05-25T04:53:45;94857.06;;;17.23;100.00
9235;BME280;4652;42.716;23.218;2023-05-25T05:00:27;94857.03;;;17.93;100.00
9235;BME280;4652;42.716;23.218;2023-05-25T05:07:10;94844.31;;;19.23;100.00
9235;BME280;4652;42.716;23.218;2023-05-25T05:13:52;94841.38;;;19.16;100.00
9235;BME280;4652;42.716;23.218;2023-05-25T05:20:34;94848.09;;;19.19;100.00
9235;BME280;4652;42.716;23.218;2023-05-25T05:27:18;94847.97;;;19.40;100.00
9235;BME280;4652;42.716;23.218;2023-05-25T05:34:00;94855.81;;;18.93;100.00
9235;BME280;4652;42.716;23.218;2023-05-25T05:40:42;94867.06;;;18.79;100.00
9235;BME280;4652;42.716;23.218;2023-05-25T05:47:25;94863.19;;;19.28;100.00
9235;BME280;4652;42.716;23.218;2023-05-25T05:54:08;94855.78;;;19.65;100.00
9235;BME280;4652;42.716;23.218;2023-05-25T06:00:50;94852.81;;;20.38;97.20
9235;BME280;4652;42.716;23.218;2023-05-25T06:07:33;94866.72;;;21.74;82.57
9235;BME280;4652;42.716;23.218;2023-05-25T06:14:15;94851.47;;;22.91;70.40
9235;BME280;4652;42.716;23.218;2023-05-25T06:20:59;94851.47;;;22.91;70.40
9235;BME280;4652;42.716;23.218;2023-05-25T06:27:43;94871.13;;;26.44;59.24
9235;BME280;4652;42.716;23.218;2023-05-25T06:47:50;94872.50;;;34.12;nan
9235;BME280;4652;42.716;23.218;2023-05-25T06:54:32;65089.03;;;-144.71;100.00
9235;BME280;4652;42.716;23.218;2023-05-25T09:32:11;94987.59;;;17.78;100.00
9235;BME280;4652;42.716;23.218;2023-05-25T09:38:54;94987.63;;;18.19;100.00
9235;BME280;4652;42.716;23.218;2023-05-25T09:45:36;94987.09;;;18.26;100.00
9235;BME280;4652;42.716;23.218;2023-05-25T09:52:19;94957.63;;;18.40;100.00
9235;BME280;4652;42.716;23.218;2023-05-25T09:59:02;94958.81;;;19.41;100.00
9235;BME280;4652;42.716;23.218;2023-05-25T10:05:44;94953.44;;;19.92;100.00
9235;BME280;4652;42.716;23.218;2023-05-25T10:12:29;94938.88;;;19.76;100.00
9235;BME280;4652;42.716;23.218;2023-05-25T10:19:13;94938.38;;;19.14;100.00
9235;BME280;4652;42.716;23.218;2023-05-25T10:26:02;94929.59;;;19.41;100.00
9235;BME280;4652;42.716;23.218;2023-05-25T10:32:48;94897.78;;;19.61;100.00
9235;BME280;4652;42.716;23.218;2023-05-25T10:39:32;94896.56;;;20.10;100.00
9235;BME280;4652;42.716;23.218;2023-05-25T10:46:15;94900.97;;;20.27;100.00
9235;BME280;4652;42.716;23.218;2023-05-25T10:53:01;94879.53;;;20.29;100.00
9235;BME280;4652;42.716;23.218;2023-05-25T10:59:47;94876.78;;;20.29;97.94
9235;BME280;4652;42.716;23.218;2023-05-25T11:07:04;94870.88;;;20.70;100.00
9235;BME280;4652;42.716;23.218;2023-05-25T11:13:54;94865.06;;;21.03;100.00
9235;BME280;4652;42.716;23.218;2023-05-25T11:20:36;94878.56;;;21.43;100.00
9235;BME280;4652;42.716;23.218;2023-05-25T11:27:21;94876.22;;;21.60;94.92
9235;BME280;4652;42.716;23.218;2023-05-25T11:34:05;94879.91;;;21.68;84.75
9235;BME280;4652;42.716;23.218;2023-05-25T11:40:48;94849.25;;;21.62;88.61
9235;BME280;4652;42.716;23.218;2023-05-25T11:47:31;94857.22;;;21.67;86.88
9235;BME280;4652;42.716;23.218;2023-05-25T11:54:21;94835.53;;;21.62;80.91
9235;BME280;4652;42.716;23.218;2023-05-25T12:01:14;94854.53;;;22.25;69.68
9235;BME280;4652;42.716;23.218;2023-05-25T12:07:58;94858.63;;;22.35;74.84
9235;BME280;4652;42.716;23.218;2023-05-25T12:14:47;94826.94;;;22.60;72.26
9235;BME280;4652;42.716;23.218;2023-05-25T12:21:30;94841.63;;;22.67;65.35
9235;BME280;4652;42.716;23.218;2023-05-25T12:28:13;94814.81;;;22.19;64.23
9235;BME280;4652;42.716;23.218;2023-05-25T12:35:07;94808.69;;;22.26;61.83
9235;BME280;4652;42.716;23.218;2023-05-25T12:41:50;94785.69;;;21.92;63.50
9235;BME280;4652;42.716;23.218;2023-05-25T12:48:32;94803.09;;;21.64;62.72
9235;BME280;4652;42.716;23.218;2023-05-25T12:55:23;94794.88;;;21.45;67.61
9235;BME280;4652;42.716;23.218;2023-05-25T13:08:19;94772.66;;;22.50;60.73
